Time;durP1;ratioP1;P1;durP2;ratioP2;P2;SDS_P1;SDS_P2;PMS_P1;PMS_P2;Temp;Humidity;BMP_temperature;BMP_pressure;BME280_temperature;BME280_humidity;BME280_pressure;Samples;Min_cycle;Max_cycle;Signal;HPM_P1;HPM_P2
2022/02/21 00:01:13;;;;;;;4.30;2.10;;;;;;;7.52;75.40;97754.03;105184;1270;75407;-76
2022/02/21 00:03:40;;;;;;;3.70;1.60;;;;;;;7.53;75.33;97744.95;105271;1270;70255;-75
2022/02/21 00:06:06;;;;;;;3.40;1.80;;;;;;;7.53;75.13;97736.26;105295;1270;73772;-75
2022/02/21 00:08:33;;;;;;;4.10;2.10;;;;;;;7.52;75.17;97730.48;105364;1270;60869;-76
2022/02/21 00:11:01;;;;;;;4.90;2.90;;;;;;;7.50;75.08;97721.31;105666;1270;60548;-76
2022/02/21 00:13:29;;;;;;;4.90;2.60;;;;;;;7.47;75.17;97713.21;105633;1270;74653;-76
2022/02/21 00:15:56;;;;;;;6.00;2.80;;;;;;;7.43;75.27;97708.52;105860;1270;70448;-77
2022/02/21 00:18:22;;;;;;;6.20;2.60;;;;;;;7.39;75.42;97709.39;107862;1270;73233;-75
2022/02/21 00:20:49;;;;;;;5.70;2.40;;;;;;;7.35;75.60;97705.10;108057;1270;60419;-75
2022/02/21 00:23:15;;;;;;;4.40;3.00;;;;;;;7.33;75.68;97696.02;108169;1270;60339;-75
2022/02/21 00:25:42;;;;;;;4.90;3.00;;;;;;;7.32;75.60;97692.60;108066;1270;59353;-75
2022/02/21 00:28:09;;;;;;;4.30;2.60;;;;;;;7.32;75.64;97690.30;105259;1270;69140;-74
2022/02/21 00:30:35;;;;;;;4.80;2.50;;;;;;;7.32;75.63;97685.02;105192;1270;60800;-76
2022/02/21 00:33:02;;;;;;;4.90;2.90;;;;;;;7.30;75.70;97680.73;105237;1270;60677;-74
2022/02/21 00:35:29;;;;;;;4.80;2.90;;;;;;;7.30;75.66;97674.93;105256;1270;61921;-75
2022/02/21 00:37:56;;;;;;;8.00;3.50;;;;;;;7.29;75.69;97670.77;105210;1270;75630;-76
2022/02/21 00:40:23;;;;;;;4.70;2.70;;;;;;;7.28;75.73;97668.00;105193;1270;70015;-75
2022/02/21 00:42:49;;;;;;;4.30;2.40;;;;;;;7.25;75.79;97663.20;105168;1270;72770;-75
2022/02/21 00:45:16;;;;;;;4.60;2.50;;;;;;;7.24;75.91;97657.28;105208;1270;60473;-76
2022/02/21 00:47:43;;;;;;;4.20;3.10;;;;;;;7.23;76.02;97647.48;105230;1270;60712;-73
2022/02/21 00:50:10;;;;;;;6.40;4.00;;;;;;;7.23;76.16;97644.84;105213;1270;75320;-74
2022/02/21 00:52:36;;;;;;;9.20;5.20;;;;;;;7.21;76.32;97640.91;104881;1270;467843;-76
2022/02/21 00:55:04;;;;;;;6.20;4.30;;;;;;;7.21;76.16;97633.36;105206;1270;74415;-76
2022/02/21 00:57:31;;;;;;;8.00;4.90;;;;;;;7.21;76.18;97632.14;105183;1270;60597;-76
2022/02/21 00:59:57;;;;;;;6.00;4.10;;;;;;;7.20;76.07;97629.90;105229;1270;60831;-75
2022/02/21 01:02:24;;;;;;;6.20;2.60;;;;;;;7.20;75.99;97622.27;105023;1270;60623;-74
2022/02/21 01:04:50;;;;;;;5.50;3.00;;;;;;;7.23;75.84;97621.71;105214;1270;60388;-76
2022/02/21 01:07:17;;;;;;;3.00;2.30;;;;;;;7.27;75.77;97616.64;105059;1270;73192;-75
2022/02/21 01:09:43;;;;;;;3.20;2.20;;;;;;;7.29;75.74;97604.70;105207;1270;60453;-76
2022/02/21 01:12:10;;;;;;;2.90;2.20;;;;;;;7.29;75.61;97599.35;105170;1269;60720;-76
2022/02/21 01:14:37;;;;;;;3.60;1.90;;;;;;;7.29;75.50;97588.60;105195;1270;75436;-75
2022/02/21 01:17:03;;;;;;;2.60;2.00;;;;;;;7.30;75.28;97583.44;105160;1270;60367;-75
2022/02/21 01:19:30;;;;;;;3.60;1.60;;;;;;;7.30;75.22;97582.52;105188;1270;73326;-76
2022/02/21 01:21:56;;;;;;;3.50;1.90;;;;;;;7.30;75.11;97577.55;105146;1270;60475;-75
2022/02/21 01:24:23;;;;;;;3.00;1.30;;;;;;;7.31;75.11;97573.61;105167;1270;60341;-76
2022/02/21 01:26:50;;;;;;;3.60;1.60;;;;;;;7.32;75.11;97575.80;105180;1270;74671;-76
2022/02/21 01:29:16;;;;;;;3.00;1.40;;;;;;;7.34;75.49;97569.10;105039;1270;67555;-75
2022/02/21 01:31:44;;;;;;;2.50;1.60;;;;;;;7.35;75.82;97561.80;105173;1269;73656;-75
2022/02/21 01:34:10;;;;;;;2.50;1.90;;;;;;;7.35;76.23;97556.69;105190;1269;60433;-76
2022/02/21 01:36:37;;;;;;;4.60;2.10;;;;;;;7.33;76.51;97547.13;105177;1270;62092;-75
2022/02/21 01:39:04;;;;;;;3.70;2.00;;;;;;;7.31;76.71;97546.17;105219;1270;74526;-75
2022/02/21 01:41:31;;;;;;;2.50;1.90;;;;;;;7.30;77.14;97546.45;105213;1270;70505;-74
2022/02/21 01:44:11;;;;;;;3.90;1.80;;;;;;;7.30;77.28;97544.56;105168;1270;60494;-76
2022/02/21 01:46:40;;;;;;;5.20;2.00;;;;;;;7.28;77.56;97540.08;105202;1270;60591;-75
2022/02/21 01:49:09;;;;;;;3.60;1.80;;;;;;;7.28;77.76;97533.77;105340;1270;60849;-75
2022/02/21 01:51:37;;;;;;;4.10;1.60;;;;;;;7.28;78.01;97530.05;105490;1270;72640;-75
2022/02/21 01:54:09;;;;;;;2.50;1.60;;;;;;;7.28;78.14;97527.35;105218;1270;69637;-74
2022/02/21 01:56:37;;;;;;;2.80;1.50;;;;;;;7.26;78.47;97520.44;105154;1270;74134;-75
2022/02/21 01:59:04;;;;;;;2.80;1.50;;;;;;;7.24;78.59;97517.41;105075;1270;60552;-77
2022/02/21 02:01:31;;;;;;;3.30;1.50;;;;;;;7.22;78.90;97514.00;105224;1270;60859;-75
2022/02/21 02:04:03;;;;;;;2.70;1.50;;;;;;;7.22;79.24;97511.40;105411;1269;75309;-74
2022/02/21 02:06:30;;;;;;;2.60;1.30;;;;;;;7.20;79.64;97506.73;105169;1270;69208;-75
2022/02/21 02:08:58;;;;;;;1.90;1.50;;;;;;;7.19;79.88;97504.08;105204;1270;74174;-75
2022/02/21 02:11:26;;;;;;;2.40;1.20;;;;;;;7.17;80.30;97502.91;105190;1270;60459;-75
2022/02/21 02:13:53;;;;;;;2.10;1.60;;;;;;;7.15;80.62;97500.23;105070;1270;61184;-75
2022/02/21 02:16:20;;;;;;;2.40;2.20;;;;;;;7.13;81.07;97496.73;105091;1271;75350;-75
2022/02/21 02:18:47;;;;;;;1.60;1.30;;;;;;;7.10;81.61;97491.64;105207;1270;70123;-76
2022/02/21 02:21:21;;;;;;;2.30;1.70;;;;;;;7.07;81.89;97486.93;105188;1270;74192;-76
2022/02/21 02:23:49;;;;;;;3.00;1.90;;;;;;;7.06;82.47;97481.90;105173;1270;60503;-76
2022/02/21 02:26:20;;;;;;;3.60;1.10;;;;;;;7.03;82.58;97472.23;105305;1270;61053;-75
2022/02/21 02:28:50;;;;;;;1.20;1.10;;;;;;;7.00;82.98;97468.59;105168;1270;75830;-75
2022/02/21 02:31:17;;;;;;;1.90;1.50;;;;;;;6.98;83.18;97461.88;105030;1270;69183;-75
2022/02/21 02:33:44;;;;;;;2.80;1.50;;;;;;;6.95;83.52;97457.50;105136;1270;74268;-75
2022/02/21 02:36:11;;;;;;;2.00;1.40;;;;;;;6.93;83.70;97462.95;105252;1270;60597;-75
2022/02/21 02:38:42;;;;;;;3.00;1.40;;;;;;;6.92;83.95;97463.34;105042;1270;62033;-74
2022/02/21 02:41:09;;;;;;;1.80;1.30;;;;;;;6.91;84.20;97463.29;105187;1270;74515;-75
2022/02/21 02:43:36;;;;;;;3.30;1.70;;;;;;;6.92;84.43;97459.48;105028;1270;69381;-75
2022/02/21 02:46:03;;;;;;;3.60;1.50;;;;;;;6.92;84.44;97454.16;105205;1270;73272;-74
2022/02/21 02:48:31;;;;;;;2.00;1.70;;;;;;;6.93;84.71;97451.67;105184;1270;60627;-75
2022/02/21 02:50:57;;;;;;;2.40;2.00;;;;;;;6.92;84.96;97448.55;105252;1270;61225;-75
2022/02/21 02:53:24;;;;;;;2.20;1.70;;;;;;;6.90;85.24;97443.73;105045;1270;75269;-76
2022/02/21 02:55:51;;;;;;;4.40;2.00;;;;;;;6.90;85.40;97443.23;105202;1270;69629;-76
2022/02/21 02:58:17;;;;;;;1.50;1.40;;;;;;;6.90;85.95;97438.84;105169;1270;60330;-75
2022/02/21 03:00:44;;;;;;;3.40;1.60;;;;;;;6.90;85.94;97438.31;105043;1270;60581;-76
2022/02/21 03:03:10;;;;;;;1.50;1.20;;;;;;;6.90;86.26;97441.83;105199;1270;60412;-77
2022/02/21 03:05:37;;;;;;;2.00;1.10;;;;;;;6.91;86.23;97438.36;105232;1270;59405;-74
2022/02/21 03:08:03;;;;;;;1.80;1.20;;;;;;;6.92;87.11;97433.50;105243;1270;60553;-77
2022/02/21 03:10:30;;;;;;;2.10;1.00;;;;;;;6.94;87.23;97433.21;105181;1270;73382;-74
2022/02/21 03:12:57;;;;;;;2.50;1.00;;;;;;;6.95;87.92;97426.59;105013;1270;60535;-75
2022/02/21 03:15:23;;;;;;;0.90;0.60;;;;;;;6.97;88.28;97422.86;105175;1270;60582;-75
2022/02/21 03:17:49;;;;;;;1.60;1.00;;;;;;;7.01;88.55;97429.33;105064;1270;60670;-75
2022/02/21 03:20:16;;;;;;;1.50;0.70;;;;;;;7.02;88.86;97425.69;105199;1270;60564;-76
2022/02/21 03:22:44;;;;;;;2.00;1.00;;;;;;;7.02;89.41;97419.32;104951;1270;72669;-73
2022/02/21 03:25:14;;;;;;;2.50;1.30;;;;;;;7.01;90.01;97423.14;105232;1270;60684;-76
2022/02/21 03:27:42;;;;;;;3.20;1.50;;;;;;;6.99;90.68;97420.08;105232;1270;60776;-76
2022/02/21 03:30:09;;;;;;;2.30;1.20;;;;;;;6.99;91.33;97412.17;104997;1270;71974;-76
2022/02/21 03:32:36;;;;;;;2.60;1.30;;;;;;;6.97;92.40;97407.90;105211;1270;69481;-75
2022/02/21 03:35:04;;;;;;;2.60;1.00;;;;;;;6.95;92.56;97398.55;105215;1270;74270;-75
2022/02/21 03:37:31;;;;;;;1.20;1.00;;;;;;;6.95;93.87;97397.46;105053;1270;60989;-75
2022/02/21 03:39:58;;;;;;;1.10;0.70;;;;;;;6.94;95.04;97390.42;105148;1270;60717;-75
2022/02/21 03:42:25;;;;;;;2.70;0.90;;;;;;;6.94;95.16;97391.87;105052;1270;74353;-75
2022/02/21 03:44:51;;;;;;;1.50;1.40;;;;;;;6.92;95.08;97386.00;105198;1270;69322;-75
2022/02/21 03:47:18;;;;;;;1.50;1.10;;;;;;;6.90;95.78;97373.52;105004;1270;73711;-77
2022/02/21 03:49:45;;;;;;;2.20;1.20;;;;;;;6.88;96.75;97374.20;105161;1270;60373;-74
2022/02/21 03:52:12;;;;;;;2.10;1.40;;;;;;;6.86;96.89;97368.54;105230;1270;60758;-75
2022/02/21 03:54:38;;;;;;;2.20;1.40;;;;;;;6.82;97.36;97361.55;105123;1270;60444;-75
2022/02/21 03:57:05;;;;;;;1.50;1.20;;;;;;;6.79;98.54;97349.09;105159;1270;60499;-75
2022/02/21 03:59:31;;;;;;;2.10;1.50;;;;;;;6.75;99.14;97334.95;105177;1270;74201;-75
2022/02/21 04:01:58;;;;;;;1.90;1.20;;;;;;;6.71;99.42;97316.04;105148;1270;60448;-75
2022/02/21 04:04:24;;;;;;;2.20;1.10;;;;;;;6.67;99.90;97304.70;105225;1270;60377;-76
2022/02/21 04:06:51;;;;;;;2.20;1.30;;;;;;;6.63;99.99;97291.09;105192;1270;60477;-76
2022/02/21 04:09:18;;;;;;;2.10;1.80;;;;;;;6.59;100.00;97265.42;105190;1270;68602;-74
2022/02/21 04:11:44;;;;;;;3.60;1.80;;;;;;;6.55;100.00;97244.94;105168;1270;74155;-75
2022/02/21 04:14:10;;;;;;;2.10;1.60;;;;;;;6.51;100.00;97236.08;105189;1270;60490;-75
2022/02/21 04:16:37;;;;;;;3.30;1.60;;;;;;;6.47;100.00;97236.58;105100;1270;60380;-76
2022/02/21 04:19:04;;;;;;;2.70;1.70;;;;;;;6.43;100.00;97237.94;105187;1270;75385;-76
2022/02/21 04:21:32;;;;;;;3.00;1.50;;;;;;;6.39;100.00;97235.77;105141;1270;69448;-75
2022/02/21 04:23:58;;;;;;;2.70;1.50;;;;;;;6.36;100.00;97235.81;105313;1270;73530;-76
2022/02/21 04:26:25;;;;;;;9.90;4.60;;;;;;;6.34;100.00;97242.86;105068;1270;60583;-75
2022/02/21 04:28:51;;;;;;;9.70;4.90;;;;;;;6.32;100.00;97245.66;105224;1270;60387;-77
2022/02/21 04:31:18;;;;;;;7.80;3.40;;;;;;;6.31;100.00;97245.73;105171;1270;60352;-75
2022/02/21 04:33:45;;;;;;;3.80;2.60;;;;;;;6.31;100.00;97241.48;105049;1270;60447;-77
2022/02/21 04:36:12;;;;;;;4.20;3.00;;;;;;;6.30;100.00;97233.80;105133;1270;74369;-76
2022/02/21 04:38:39;;;;;;;2.30;2.10;;;;;;;6.31;100.00;97226.00;105184;1270;60450;-76
2022/02/21 04:41:06;;;;;;;2.40;1.90;;;;;;;6.30;100.00;97218.84;105198;1270;60506;-76
2022/02/21 04:43:34;;;;;;;5.70;2.50;;;;;;;6.30;100.00;97204.34;105191;1270;74323;-77
2022/02/21 04:46:01;;;;;;;2.90;2.20;;;;;;;6.31;100.00;97195.99;105233;1270;69132;-77
2022/02/21 04:48:29;;;;;;;6.60;3.30;;;;;;;6.33;100.00;97179.11;105185;1270;73477;-76
2022/02/21 04:50:56;;;;;;;5.50;3.70;;;;;;;6.33;100.00;97171.12;105391;1270;60505;-75
2022/02/21 04:53:22;;;;;;;8.70;4.70;;;;;;;6.36;100.00;97168.11;105171;1269;60436;-77
2022/02/21 04:55:50;;;;;;;9.00;4.20;;;;;;;6.38;100.00;97160.00;105181;1270;75632;-76
2022/02/21 04:58:17;;;;;;;12.60;4.90;;;;;;;6.40;100.00;97145.04;105182;1270;69122;-81
2022/02/21 05:00:43;;;;;;;8.00;3.70;;;;;;;6.44;100.00;97139.27;105119;1270;74424;-79
2022/02/21 05:03:10;;;;;;;6.10;2.80;;;;;;;6.47;99.91;97129.50;105070;1270;60572;-77
2022/02/21 05:05:36;;;;;;;5.40;2.70;;;;;;;6.51;99.50;97124.02;105194;1270;60499;-78
2022/02/21 05:08:03;;;;;;;5.00;2.90;;;;;;;6.57;99.05;97122.86;105175;1270;60562;-75
2022/02/21 05:10:30;;;;;;;5.10;3.10;;;;;;;6.62;98.57;97117.86;105188;1270;69903;-75
2022/02/21 05:12:56;;;;;;;4.90;2.80;;;;;;;6.66;98.21;97119.98;105282;1270;73407;-75
2022/02/21 05:15:23;;;;;;;6.10;2.70;;;;;;;6.69;97.67;97118.30;105235;1270;60490;-74
2022/02/21 05:17:49;;;;;;;4.20;2.30;;;;;;;6.74;97.25;97122.84;105187;1270;61809;-74
2022/02/21 05:20:16;;;;;;;3.90;2.60;;;;;;;6.80;96.83;97124.86;105282;1270;59439;-75
2022/02/21 05:22:42;;;;;;;3.20;2.00;;;;;;;6.84;96.53;97120.67;105238;1270;70389;-79
2022/02/21 05:25:09;;;;;;;4.00;2.20;;;;;;;6.87;96.17;97121.08;105256;1270;73936;-76
2022/02/21 05:27:37;;;;;;;6.10;3.80;;;;;;;6.93;95.87;97129.30;105266;1270;59354;-78
2022/02/21 05:30:05;;;;;;;5.80;3.70;;;;;;;6.98;95.57;97132.88;105137;1270;60913;-77
2022/02/21 05:32:32;;;;;;;6.10;3.30;;;;;;;7.03;95.20;97133.73;105273;1270;73906;-76
2022/02/21 05:35:00;;;;;;;8.90;5.50;;;;;;;7.09;95.26;97131.11;105247;1270;70294;-75
2022/02/21 05:37:27;;;;;;;6.80;4.40;;;;;;;7.11;95.31;97125.28;105130;1271;74273;-76
2022/02/21 05:39:54;;;;;;;6.00;3.90;;;;;;;7.12;95.20;97124.00;105239;1270;60587;-74
2022/02/21 05:42:21;;;;;;;4.10;3.30;;;;;;;7.14;95.39;97115.73;105297;1270;60845;-75
2022/02/21 05:44:47;;;;;;;6.00;3.00;;;;;;;7.15;95.00;97109.94;105251;1270;74217;-74
2022/02/21 05:47:14;;;;;;;5.70;2.70;;;;;;;7.18;95.26;97104.92;105261;1270;68626;-76
2022/02/21 05:49:41;;;;;;;6.10;2.80;;;;;;;7.17;95.22;97103.20;105231;1270;74190;-75
2022/02/21 05:52:08;;;;;;;4.90;3.00;;;;;;;7.18;94.95;97106.59;105261;1270;61250;-75
2022/02/21 05:54:35;;;;;;;4.20;2.20;;;;;;;7.21;95.03;97112.30;105369;1270;61286;-75
2022/02/21 05:57:01;;;;;;;5.20;2.70;;;;;;;7.20;95.06;97101.78;105460;1270;76114;-75
2022/02/21 05:59:28;;;;;;;5.20;3.10;;;;;;;7.20;95.07;97105.99;105978;1270;70196;-75
2022/02/21 06:01:55;;;;;;;4.70;3.10;;;;;;;7.21;94.98;97099.76;106334;1269;73240;-77
2022/02/21 06:04:21;;;;;;;4.00;2.90;;;;;;;7.24;94.83;97096.12;106191;1270;61435;-76
2022/02/21 06:06:48;;;;;;;4.30;2.40;;;;;;;7.28;94.89;97094.45;108306;1270;58704;-76
2022/02/21 06:09:14;;;;;;;3.30;2.20;;;;;;;7.29;94.73;97091.35;108471;1270;59255;-77
2022/02/21 06:11:41;;;;;;;5.30;3.20;;;;;;;7.31;94.67;97091.89;108330;1269;58936;-76
2022/02/21 06:14:07;;;;;;;3.00;2.40;;;;;;;7.33;94.63;97096.10;107191;1270;60473;-76
2022/02/21 06:16:34;;;;;;;3.70;2.20;;;;;;;7.34;94.46;97100.23;106651;1270;61263;-76
2022/02/21 06:19:00;;;;;;;5.00;2.40;;;;;;;7.37;94.55;97106.73;105123;1271;61409;-76
2022/02/21 06:21:28;;;;;;;4.90;2.30;;;;;;;7.40;94.49;97101.84;105303;1270;61269;-77
2022/02/21 06:23:55;;;;;;;3.10;2.10;;;;;;;7.44;94.17;97104.89;105293;1270;69235;-77
2022/02/21 06:26:21;;;;;;;4.10;2.20;;;;;;;7.47;94.15;97109.78;105223;1270;61251;-75
2022/02/21 06:28:48;;;;;;;4.20;2.20;;;;;;;7.46;94.26;97113.15;105225;1270;61286;-76
2022/02/21 06:31:14;;;;;;;5.00;2.30;;;;;;;7.46;94.12;97113.39;105224;1270;61295;-75
2022/02/21 06:33:41;;;;;;;3.90;2.10;;;;;;;7.46;94.11;97115.84;105205;1270;61286;-75
2022/02/21 06:36:07;;;;;;;3.20;1.90;;;;;;;7.45;93.90;97119.95;105200;1270;61353;-75
2022/02/21 06:38:34;;;;;;;5.00;2.50;;;;;;;7.46;93.81;97120.77;105176;1270;61332;-75
2022/02/21 06:41:00;;;;;;;4.30;1.80;;;;;;;7.46;93.70;97117.55;105223;1270;61309;-75
2022/02/21 06:43:27;;;;;;;4.70;2.60;;;;;;;7.46;93.76;97119.59;105185;1270;61192;-75
2022/02/21 06:45:54;;;;;;;4.10;2.00;;;;;;;7.45;93.86;97122.82;105230;1270;75215;-75
2022/02/21 06:48:22;;;;;;;3.90;2.70;;;;;;;7.43;94.06;97127.73;105202;1270;70131;-77
2022/02/21 06:50:48;;;;;;;3.80;2.20;;;;;;;7.39;94.19;97129.83;105196;1270;72714;-76
2022/02/21 06:53:15;;;;;;;4.80;3.10;;;;;;;7.36;94.54;97131.02;105229;1270;61336;-76
2022/02/21 06:55:42;;;;;;;5.90;3.40;;;;;;;7.32;95.05;97127.13;105258;1270;61148;-76
2022/02/21 06:58:11;;;;;;;7.40;3.80;;;;;;;7.23;95.63;97126.58;105226;1270;61148;-77
2022/02/21 07:00:37;;;;;;;7.60;3.50;;;;;;;7.17;95.81;97122.66;105220;1270;69182;-76
2022/02/21 07:03:04;;;;;;;4.60;2.90;;;;;;;7.14;95.98;97117.50;105059;1270;72241;-76
2022/02/21 07:05:31;;;;;;;4.80;2.70;;;;;;;7.11;96.20;97109.10;105227;1270;61217;-75
2022/02/21 07:07:57;;;;;;;5.00;3.30;;;;;;;7.08;96.30;97117.27;105233;1270;61305;-75
2022/02/21 07:10:24;;;;;;;5.30;3.40;;;;;;;7.05;96.41;97114.34;105169;1270;75802;-74
2022/02/21 07:12:51;;;;;;;7.40;3.50;;;;;;;7.02;96.48;97113.49;105240;1270;70500;-76
2022/02/21 07:15:17;;;;;;;6.40;3.90;;;;;;;7.02;96.75;97113.67;105197;1270;73343;-76
2022/02/21 07:17:45;;;;;;;7.50;3.70;;;;;;;7.03;96.87;97115.92;105195;1270;61256;-75
2022/02/21 07:20:12;;;;;;;6.40;3.30;;;;;;;7.03;96.73;97112.39;105218;1270;61376;-75
2022/02/21 07:22:41;;;;;;;7.60;4.60;;;;;;;7.02;96.64;97113.50;105255;1270;75381;-78
2022/02/21 07:25:13;;;;;;;7.00;3.60;;;;;;;7.02;96.65;97113.49;105329;1270;69204;-74
2022/02/21 07:27:45;;;;;;;11.50;4.70;;;;;;;7.03;96.62;97109.73;105117;1271;73367;-74
2022/02/21 07:30:14;;;;;;;7.70;3.80;;;;;;;7.05;96.57;97109.94;105260;1270;61314;-76
2022/02/21 07:32:41;;;;;;;6.30;3.80;;;;;;;7.06;96.51;97104.71;105465;1270;62096;-75
2022/02/21 07:35:09;;;;;;;5.60;3.80;;;;;;;7.08;96.33;97098.54;105205;1270;76433;-74
2022/02/21 07:37:39;;;;;;;5.50;3.30;;;;;;;7.11;96.25;97094.45;105235;1270;68839;-74
2022/02/21 07:40:09;;;;;;;5.30;3.90;;;;;;;7.12;96.21;97089.05;105077;1272;71368;-75
2022/02/21 07:42:36;;;;;;;9.10;4.60;;;;;;;7.14;96.09;97085.86;105512;1270;61658;-75
2022/02/21 07:45:03;;;;;;;5.10;3.50;;;;;;;7.17;95.97;97083.16;105346;1270;61209;-75
2022/02/21 07:47:30;;;;;;;4.70;2.80;;;;;;;7.22;95.72;97073.01;105156;1270;74598;-74
2022/02/21 07:49:56;;;;;;;5.10;3.60;;;;;;;7.29;95.50;97067.48;105164;1270;61585;-77
2022/02/21 07:52:23;;;;;;;7.10;4.30;;;;;;;7.37;95.10;97064.34;105189;1270;61211;-75
2022/02/21 07:54:50;;;;;;;7.20;4.40;;;;;;;7.46;94.78;97063.40;105215;1270;61283;-75
2022/02/21 07:57:17;;;;;;;7.20;4.20;;;;;;;7.55;94.48;97057.15;105251;1269;61555;-76
2022/02/21 07:59:43;;;;;;;8.80;5.00;;;;;;;7.65;93.96;97055.58;105183;1270;76309;-76
2022/02/21 08:02:10;;;;;;;8.60;3.90;;;;;;;7.75;93.63;97053.52;105185;1270;61253;-76
2022/02/21 08:04:36;;;;;;;6.80;3.30;;;;;;;7.82;92.95;97060.08;105188;1270;61316;-75
2022/02/21 08:07:03;;;;;;;7.30;3.70;;;;;;;7.91;92.70;97067.47;105210;1270;61372;-74
2022/02/21 08:09:30;;;;;;;13.40;5.40;;;;;;;7.98;92.20;97068.45;105191;1270;61281;-74
2022/02/21 08:11:57;;;;;;;3.30;2.20;;;;;;;8.07;91.78;97056.51;105209;1270;76295;-74
2022/02/21 08:14:24;;;;;;;4.70;3.40;;;;;;;8.18;90.66;97050.61;105246;1270;69799;-74
2022/02/21 08:16:50;;;;;;;7.30;3.60;;;;;;;8.30;90.20;97050.61;105209;1270;73142;-74
2022/02/21 08:19:16;;;;;;;9.70;4.10;;;;;;;8.42;89.31;97048.19;105180;1270;61383;-73
2022/02/21 08:21:44;;;;;;;5.10;2.60;;;;;;;8.53;88.86;97054.23;105146;1270;61261;-74
2022/02/21 08:24:10;;;;;;;4.90;2.50;;;;;;;8.63;88.55;97049.45;105180;1270;75220;-74
2022/02/21 08:26:37;;;;;;;10.90;4.60;;;;;;;8.71;88.37;97048.69;105201;1270;61337;-75
2022/02/21 08:29:04;;;;;;;3.90;3.20;;;;;;;8.79;88.20;97037.00;105054;1270;74530;-76
2022/02/21 08:31:30;;;;;;;5.60;2.70;;;;;;;8.83;87.11;97027.98;105150;1270;61306;-74
2022/02/21 08:33:57;;;;;;;4.70;2.00;;;;;;;8.85;85.70;97022.20;105184;1270;61271;-75
2022/02/21 08:36:23;;;;;;;4.00;2.30;;;;;;;8.86;84.85;97030.22;105207;1270;61324;-75
2022/02/21 08:38:50;;;;;;;2.80;2.00;;;;;;;8.88;84.29;97028.73;105175;1270;61364;-74
2022/02/21 08:41:17;;;;;;;3.70;2.20;;;;;;;8.90;83.83;97030.35;105037;1271;73137;-74
2022/02/21 08:43:43;;;;;;;2.90;2.10;;;;;;;8.91;83.38;97021.27;105183;1270;61300;-73
2022/02/21 08:46:11;;;;;;;2.80;2.00;;;;;;;8.90;83.45;97021.84;105206;1270;61265;-74
2022/02/21 08:48:38;;;;;;;3.40;1.50;;;;;;;8.90;82.48;97017.80;105231;1270;76133;-77
2022/02/21 08:51:04;;;;;;;2.60;1.50;;;;;;;8.90;82.59;97025.08;105152;1270;70180;-76
2022/02/21 08:53:31;;;;;;;1.50;1.40;;;;;;;8.89;82.18;97029.01;105121;1270;61267;-75
2022/02/21 08:55:57;;;;;;;3.10;1.70;;;;;;;8.89;81.20;97023.16;105001;1271;61215;-75
2022/02/21 08:58:24;;;;;;;4.20;2.10;;;;;;;8.90;81.12;97016.73;105202;1270;61344;-75
2022/02/21 09:00:50;;;;;;;4.90;2.80;;;;;;;8.91;80.93;97015.59;105190;1270;61355;-75
2022/02/21 09:03:17;;;;;;;5.90;3.70;;;;;;;8.92;80.89;97009.08;105219;1270;61344;-75
2022/02/21 09:05:43;;;;;;;4.20;2.60;;;;;;;8.93;80.01;97006.14;104960;1274;72193;-75
2022/02/21 09:08:10;;;;;;;5.00;2.70;;;;;;;8.94;79.60;97009.04;105252;1270;61384;-75
2022/02/21 09:10:36;;;;;;;5.30;2.90;;;;;;;8.98;79.59;97008.94;105134;1271;61402;-73
2022/02/21 09:13:03;;;;;;;4.70;3.30;;;;;;;8.99;79.28;97000.09;105220;1270;61377;-74
2022/02/21 09:15:30;;;;;;;5.30;3.10;;;;;;;9.00;78.51;96999.45;105195;1270;69040;-73
2022/02/21 09:17:57;;;;;;;7.70;3.70;;;;;;;9.02;78.25;96993.63;105211;1270;61340;-74
2022/02/21 09:20:23;;;;;;;11.80;6.10;;;;;;;9.07;77.69;96991.40;105198;1271;61285;-74
2022/02/21 09:22:50;;;;;;;10.80;5.80;;;;;;;9.11;77.65;96982.34;105217;1270;62070;-74
2022/02/21 09:25:17;;;;;;;4.10;2.60;;;;;;;9.14;77.75;96977.61;105228;1270;75452;-74
2022/02/21 09:27:44;;;;;;;3.10;2.40;;;;;;;9.19;77.48;96979.13;105233;1270;69192;-75
2022/02/21 09:30:11;;;;;;;2.70;1.90;;;;;;;9.23;76.65;96980.91;105200;1270;74913;-75
2022/02/21 09:32:38;;;;;;;3.00;2.20;;;;;;;9.28;76.49;96981.85;105042;1270;61304;-75
2022/02/21 09:35:06;;;;;;;3.30;2.20;;;;;;;9.31;75.75;96986.34;105231;1270;61270;-75
2022/02/21 09:37:36;;;;;;;6.20;3.10;;;;;;;9.33;75.84;96998.20;105308;1270;75349;-74
2022/02/21 09:40:08;;;;;;;3.90;2.50;;;;;;;9.33;75.60;96996.98;105300;1270;69221;-73
2022/02/21 09:42:37;;;;;;;2.90;2.50;;;;;;;9.37;75.32;96993.38;105228;1270;73309;-74
2022/02/21 09:45:06;;;;;;;6.00;3.20;;;;;;;9.42;74.88;96998.04;105016;1270;61375;-75
2022/02/21 09:47:38;;;;;;;1.90;1.60;;;;;;;9.45;74.76;97005.22;105149;1270;61266;-73
2022/02/21 09:50:07;;;;;;;3.50;1.60;;;;;;;9.43;74.75;97011.02;105044;1271;75101;-73
2022/02/21 09:52:33;;;;;;;4.20;2.40;;;;;;;9.37;74.10;97015.54;105215;1270;69088;-74
2022/02/21 09:55:00;;;;;;;5.30;3.10;;;;;;;9.31;74.59;97018.74;105178;1270;61266;-74
2022/02/21 09:57:27;;;;;;;2.50;1.90;;;;;;;9.27;74.52;97023.80;105326;1270;61383;-75
2022/02/21 09:59:54;;;;;;;2.60;2.00;;;;;;;9.21;74.18;97026.63;105040;1270;61236;-74
2022/02/21 10:02:23;;;;;;;3.00;2.10;;;;;;;9.16;74.32;97028.98;105219;1270;61253;-74
2022/02/21 10:05:11;;;;;;;3.70;2.20;;;;;;;9.11;73.99;97028.91;105344;1270;70232;-74
2022/02/21 10:07:39;;;;;;;4.50;2.90;;;;;;;9.06;73.95;97027.48;105591;1270;75183;-74
2022/02/21 10:10:07;;;;;;;2.80;2.40;;;;;;;9.00;74.17;97037.71;104914;1274;61416;-73
2022/02/21 10:12:54;;;;;;;3.60;2.50;;;;;;;8.98;74.06;97031.92;105270;1271;61910;-73
2022/02/21 10:15:24;;;;;;;2.70;2.10;;;;;;;8.95;74.61;97044.89;105221;1270;75180;-74
2022/02/21 10:18:07;;;;;;;3.50;2.60;;;;;;;8.93;74.55;97051.16;105207;1270;69817;-73
2022/02/21 10:21:10;;;;;;;4.50;3.00;;;;;;;8.91;74.63;97057.70;105227;1270;73317;-73
2022/02/21 10:23:43;;;;;;;4.70;3.00;;;;;;;8.89;74.65;97055.27;105241;1270;61292;-75
2022/02/21 10:26:10;;;;;;;5.20;2.60;;;;;;;8.90;75.11;97061.55;105282;1271;61339;-74
2022/02/21 10:28:42;;;;;;;4.90;2.70;;;;;;;8.89;75.17;97068.36;105240;1270;76623;-74
2022/02/21 10:31:17;;;;;;;4.70;2.80;;;;;;;8.84;75.08;97075.05;105264;1270;69267;-73
2022/02/21 10:33:58;;;;;;;5.30;2.60;;;;;;;8.76;74.79;97138.91;105297;1271;74157;-75
2022/02/21 10:36:37;;;;;;;2.20;1.00;;;;;;;8.60;73.37;97173.25;105243;1270;61306;-74
2022/02/21 10:39:10;;;;;;;2.20;1.10;;;;;;;8.26;72.33;97180.13;105188;1271;61915;-75
2022/02/21 10:41:38;;;;;;;3.30;1.60;;;;;;;7.88;73.31;97179.27;105026;1274;74572;-74
2022/02/21 10:44:32;;;;;;;1.60;1.10;;;;;;;7.55;74.76;97184.52;105020;1271;69618;-74
2022/02/21 10:47:04;;;;;;;3.70;1.30;;;;;;;7.22;75.66;97181.66;105254;1270;70800;-75
2022/02/21 10:49:32;;;;;;;1.40;1.00;;;;;;;6.98;76.89;97180.44;105241;1270;61350;-75
2022/02/21 10:52:01;;;;;;;1.70;0.80;;;;;;;6.76;77.55;97180.79;105300;1270;61341;-74
2022/02/21 10:54:36;;;;;;;1.50;0.90;;;;;;;6.60;78.11;97179.77;105314;1270;75356;-73
2022/02/21 10:57:08;;;;;;;1.60;0.90;;;;;;;6.49;78.66;97183.66;105356;1270;70170;-74
2022/02/21 10:59:34;;;;;;;1.30;0.90;;;;;;;6.42;79.35;97193.23;105020;1274;74501;-74
2022/02/21 11:02:02;;;;;;;1.60;1.10;;;;;;;6.38;80.20;97197.02;105234;1270;61385;-74
2022/02/21 11:04:30;;;;;;;1.40;0.90;;;;;;;6.34;80.96;97206.19;105097;1270;61258;-75
2022/02/21 11:06:58;;;;;;;1.40;1.10;;;;;;;6.26;81.74;97209.08;105383;1270;75085;-75
2022/02/21 11:09:29;;;;;;;2.40;1.20;;;;;;;6.22;82.36;97204.70;105116;1271;70229;-74
2022/02/21 11:11:58;;;;;;;2.30;1.30;;;;;;;6.18;82.88;97186.48;105242;1270;74296;-74
2022/02/21 11:14:30;;;;;;;7.40;3.70;;;;;;;6.17;83.09;97174.55;105314;1270;61358;-75
2022/02/21 11:17:01;;;;;;;5.30;3.40;;;;;;;6.24;83.62;97181.58;105337;1270;61233;-75
2022/02/21 11:19:28;;;;;;;2.50;2.30;;;;;;;6.32;84.00;97163.27;105418;1271;75373;-75
2022/02/21 11:21:55;;;;;;;3.80;2.60;;;;;;;6.45;84.31;97163.84;105198;1270;69391;-74
2022/02/21 11:24:26;;;;;;;3.40;2.50;;;;;;;6.56;84.64;97156.97;105312;1270;73103;-75
2022/02/21 11:27:29;;;;;;;4.60;4.00;;;;;;;6.68;84.91;97160.56;105303;1271;61388;-73
2022/02/21 11:30:05;;;;;;;4.60;4.20;;;;;;;6.81;85.19;97168.49;105288;1271;61866;-75
2022/02/21 11:32:32;;;;;;;7.00;6.20;;;;;;;6.91;85.48;97179.37;105325;1271;75125;-74
2022/02/21 11:35:12;;;;;;;8.70;7.80;;;;;;;6.98;85.74;97196.50;105317;1270;69329;-75